sensor_id;sensor_type;location;lat;lon;timestamp;P1;durP1;ratioP1;P2;durP2;ratioP2
40162;SDS011;25881;47.462;19.304;2022-10-16T00:00:12;12.83;;;7.70;;
40162;SDS011;25881;47.462;19.304;2022-10-16T00:02:38;9.82;;;6.97;;
40162;SDS011;25881;47.462;19.304;2022-10-16T00:05:03;10.20;;;6.90;;
40162;SDS011;25881;47.462;19.304;2022-10-16T00:07:28;12.32;;;7.22;;
40162;SDS011;25881;47.462;19.304;2022-10-16T00:09:53;14.03;;;7.27;;
40162;SDS011;25881;47.462;19.304;2022-10-16T00:12:19;12.10;;;6.67;;
40162;SDS011;25881;47.462;19.304;2022-10-16T00:14:44;12.83;;;7.47;;
40162;SDS011;25881;47.462;19.304;2022-10-16T00:17:09;15.43;;;7.67;;
40162;SDS011;25881;47.462;19.304;2022-10-16T00:19:34;14.37;;;7.90;;
40162;SDS011;25881;47.462;19.304;2022-10-16T00:21:59;12.60;;;8.33;;
40162;SDS011;25881;47.462;19.304;2022-10-16T00:24:25;11.90;;;6.97;;
40162;SDS011;25881;47.462;19.304;2022-10-16T00:26:50;16.30;;;8.03;;
40162;SDS011;25881;47.462;19.304;2022-10-16T00:29:15;12.82;;;7.65;;
40162;SDS011;25881;47.462;19.304;2022-10-16T00:31:41;12.70;;;7.00;;
40162;SDS011;25881;47.462;19.304;2022-10-16T00:34:06;11.65;;;6.82;;
40162;SDS011;25881;47.462;19.304;2022-10-16T00:36:31;15.23;;;8.70;;
40162;SDS011;25881;47.462;19.304;2022-10-16T00:38:57;13.65;;;6.90;;
40162;SDS011;25881;47.462;19.304;2022-10-16T00:41:24;11.57;;;6.85;;
40162;SDS011;25881;47.462;19.304;2022-10-16T00:43:51;10.18;;;6.20;;
40162;SDS011;25881;47.462;19.304;2022-10-16T00:46:21;9.55;;;6.60;;
40162;SDS011;25881;47.462;19.304;2022-10-16T00:48:49;10.93;;;7.00;;
40162;SDS011;25881;47.462;19.304;2022-10-16T00:51:14;10.02;;;6.35;;
40162;SDS011;25881;47.462;19.304;2022-10-16T00:53:40;12.55;;;6.97;;
40162;SDS011;25881;47.462;19.304;2022-10-16T00:56:05;10.05;;;6.18;;
40162;SDS011;25881;47.462;19.304;2022-10-16T00:58:31;11.10;;;6.70;;
40162;SDS011;25881;47.462;19.304;2022-10-16T01:00:56;10.77;;;6.20;;
40162;SDS011;25881;47.462;19.304;2022-10-16T01:03:23;11.95;;;6.47;;
40162;SDS011;25881;47.462;19.304;2022-10-16T01:05:50;10.20;;;7.22;;
40162;SDS011;25881;47.462;19.304;2022-10-16T01:08:20;12.10;;;7.43;;
40162;SDS011;25881;47.462;19.304;2022-10-16T01:11:08;14.02;;;7.32;;
40162;SDS011;25881;47.462;19.304;2022-10-16T01:13:37;12.77;;;7.55;;
40162;SDS011;25881;47.462;19.304;2022-10-16T01:16:06;9.63;;;6.43;;
40162;SDS011;25881;47.462;19.304;2022-10-16T01:18:35;11.30;;;6.47;;
40162;SDS011;25881;47.462;19.304;2022-10-16T01:21:03;10.68;;;6.45;;
40162;SDS011;25881;47.462;19.304;2022-10-16T01:31:27;10.98;;;5.82;;
40162;SDS011;25881;47.462;19.304;2022-10-16T01:34:07;9.98;;;5.97;;
40162;SDS011;25881;47.462;19.304;2022-10-16T01:36:39;14.10;;;5.55;;
40162;SDS011;25881;47.462;19.304;2022-10-16T01:39:05;12.32;;;5.93;;
40162;SDS011;25881;47.462;19.304;2022-10-16T01:41:33;8.77;;;5.75;;
40162;SDS011;25881;47.462;19.304;2022-10-16T01:44:08;9.82;;;5.65;;
40162;SDS011;25881;47.462;19.304;2022-10-16T01:46:35;9.30;;;5.90;;
40162;SDS011;25881;47.462;19.304;2022-10-16T01:49:01;11.35;;;6.05;;
40162;SDS011;25881;47.462;19.304;2022-10-16T01:51:27;9.02;;;5.78;;
40162;SDS011;25881;47.462;19.304;2022-10-16T01:53:54;12.18;;;6.05;;
40162;SDS011;25881;47.462;19.304;2022-10-16T01:56:20;9.30;;;5.82;;
40162;SDS011;25881;47.462;19.304;2022-10-16T01:58:58;9.15;;;5.85;;
40162;SDS011;25881;47.462;19.304;2022-10-16T02:01:26;9.82;;;5.47;;
40162;SDS011;25881;47.462;19.304;2022-10-16T02:03:52;9.30;;;5.70;;
40162;SDS011;25881;47.462;19.304;2022-10-16T02:06:18;11.25;;;5.95;;
40162;SDS011;25881;47.462;19.304;2022-10-16T02:08:45;8.63;;;5.35;;
40162;SDS011;25881;47.462;19.304;2022-10-16T02:11:11;8.75;;;5.50;;
40162;SDS011;25881;47.462;19.304;2022-10-16T02:13:44;9.55;;;6.20;;
40162;SDS011;25881;47.462;19.304;2022-10-16T02:16:10;8.70;;;5.70;;
40162;SDS011;25881;47.462;19.304;2022-10-16T02:18:36;13.68;;;6.10;;
40162;SDS011;25881;47.462;19.304;2022-10-16T02:21:11;12.43;;;5.88;;
40162;SDS011;25881;47.462;19.304;2022-10-16T02:26:07;9.25;;;5.57;;
40162;SDS011;25881;47.462;19.304;2022-10-16T02:28:39;9.98;;;6.45;;
40162;SDS011;25881;47.462;19.304;2022-10-16T02:31:06;10.32;;;6.43;;
40162;SDS011;25881;47.462;19.304;2022-10-16T02:33:33;15.23;;;6.40;;
40162;SDS011;25881;47.462;19.304;2022-10-16T02:36:03;8.63;;;5.80;;
40162;SDS011;25881;47.462;19.304;2022-10-16T02:38:28;10.07;;;6.27;;
40162;SDS011;25881;47.462;19.304;2022-10-16T02:40:55;9.18;;;6.20;;
40162;SDS011;25881;47.462;19.304;2022-10-16T02:43:20;11.25;;;6.90;;
40162;SDS011;25881;47.462;19.304;2022-10-16T02:45:46;13.50;;;8.47;;
40162;SDS011;25881;47.462;19.304;2022-10-16T02:48:11;14.50;;;8.80;;
40162;SDS011;25881;47.462;19.304;2022-10-16T02:50:36;16.77;;;9.50;;
40162;SDS011;25881;47.462;19.304;2022-10-16T02:53:01;14.03;;;8.80;;
40162;SDS011;25881;47.462;19.304;2022-10-16T02:55:27;12.90;;;8.37;;
40162;SDS011;25881;47.462;19.304;2022-10-16T02:57:53;17.23;;;8.80;;
40162;SDS011;25881;47.462;19.304;2022-10-16T03:00:18;12.88;;;7.95;;
40162;SDS011;25881;47.462;19.304;2022-10-16T03:02:44;17.40;;;7.97;;
40162;SDS011;25881;47.462;19.304;2022-10-16T03:05:09;13.60;;;8.13;;
40162;SDS011;25881;47.462;19.304;2022-10-16T03:07:34;12.02;;;7.05;;
40162;SDS011;25881;47.462;19.304;2022-10-16T03:10:00;9.00;;;6.77;;
40162;SDS011;25881;47.462;19.304;2022-10-16T03:12:25;9.80;;;6.67;;
40162;SDS011;25881;47.462;19.304;2022-10-16T03:14:51;10.38;;;6.60;;
40162;SDS011;25881;47.462;19.304;2022-10-16T03:17:16;12.50;;;6.13;;
40162;SDS011;25881;47.462;19.304;2022-10-16T03:19:41;11.98;;;7.03;;
40162;SDS011;25881;47.462;19.304;2022-10-16T03:22:06;15.17;;;6.80;;
40162;SDS011;25881;47.462;19.304;2022-10-16T03:24:32;10.20;;;6.43;;
40162;SDS011;25881;47.462;19.304;2022-10-16T03:26:57;10.23;;;6.10;;
40162;SDS011;25881;47.462;19.304;2022-10-16T03:29:22;9.30;;;6.90;;
40162;SDS011;25881;47.462;19.304;2022-10-16T03:31:47;9.87;;;6.17;;
40162;SDS011;25881;47.462;19.304;2022-10-16T03:34:14;12.18;;;6.88;;
40162;SDS011;25881;47.462;19.304;2022-10-16T03:36:39;12.80;;;7.13;;
40162;SDS011;25881;47.462;19.304;2022-10-16T03:39:04;12.40;;;6.50;;
40162;SDS011;25881;47.462;19.304;2022-10-16T03:41:30;11.17;;;6.47;;
40162;SDS011;25881;47.462;19.304;2022-10-16T03:43:55;9.93;;;6.43;;
40162;SDS011;25881;47.462;19.304;2022-10-16T03:46:20;10.93;;;7.20;;
40162;SDS011;25881;47.462;19.304;2022-10-16T03:48:45;11.23;;;7.47;;
40162;SDS011;25881;47.462;19.304;2022-10-16T03:51:10;9.93;;;6.77;;
40162;SDS011;25881;47.462;19.304;2022-10-16T03:53:36;10.77;;;7.00;;
40162;SDS011;25881;47.462;19.304;2022-10-16T03:56:01;13.33;;;7.47;;
40162;SDS011;25881;47.462;19.304;2022-10-16T03:58:26;11.63;;;7.07;;
40162;SDS011;25881;47.462;19.304;2022-10-16T04:00:51;10.90;;;6.73;;
40162;SDS011;25881;47.462;19.304;2022-10-16T04:03:17;12.70;;;6.40;;
40162;SDS011;25881;47.462;19.304;2022-10-16T04:05:44;11.00;;;7.53;;
40162;SDS011;25881;47.462;19.304;2022-10-16T04:08:09;13.60;;;6.72;;
40162;SDS011;25881;47.462;19.304;2022-10-16T04:10:34;12.77;;;8.17;;
40162;SDS011;25881;47.462;19.304;2022-10-16T04:12:59;19.37;;;11.53;;
40162;SDS011;25881;47.462;19.304;2022-10-16T04:15:25;13.83;;;9.67;;
40162;SDS011;25881;47.462;19.304;2022-10-16T04:17:50;13.30;;;10.05;;
40162;SDS011;25881;47.462;19.304;2022-10-16T04:20:16;13.30;;;9.07;;
40162;SDS011;25881;47.462;19.304;2022-10-16T04:22:41;14.47;;;8.10;;
40162;SDS011;25881;47.462;19.304;2022-10-16T04:25:06;13.53;;;8.60;;
40162;SDS011;25881;47.462;19.304;2022-10-16T04:27:32;12.05;;;7.63;;
40162;SDS011;25881;47.462;19.304;2022-10-16T04:29:57;13.68;;;7.63;;
40162;SDS011;25881;47.462;19.304;2022-10-16T04:32:23;10.55;;;7.47;;
40162;SDS011;25881;47.462;19.304;2022-10-16T04:34:48;13.00;;;7.20;;
40162;SDS011;25881;47.462;19.304;2022-10-16T04:37:13;13.77;;;7.83;;
40162;SDS011;25881;47.462;19.304;2022-10-16T04:39:38;10.97;;;7.20;;
40162;SDS011;25881;47.462;19.304;2022-10-16T04:42:03;13.17;;;7.53;;
40162;SDS011;25881;47.462;19.304;2022-10-16T04:44:29;12.38;;;7.32;;
40162;SDS011;25881;47.462;19.304;2022-10-16T04:46:54;12.50;;;7.20;;
40162;SDS011;25881;47.462;19.304;2022-10-16T04:49:19;12.37;;;7.17;;
40162;SDS011;25881;47.462;19.304;2022-10-16T04:51:44;11.73;;;7.20;;
40162;SDS011;25881;47.462;19.304;2022-10-16T04:54:10;13.03;;;7.47;;
40162;SDS011;25881;47.462;19.304;2022-10-16T04:56:35;17.53;;;7.60;;
40162;SDS011;25881;47.462;19.304;2022-10-16T04:59:08;10.30;;;7.53;;
40162;SDS011;25881;47.462;19.304;2022-10-16T05:01:33;13.75;;;7.28;;
40162;SDS011;25881;47.462;19.304;2022-10-16T05:03:58;13.73;;;8.37;;
40162;SDS011;25881;47.462;19.304;2022-10-16T05:06:23;13.57;;;7.33;;
40162;SDS011;25881;47.462;19.304;2022-10-16T05:08:48;15.67;;;9.00;;
40162;SDS011;25881;47.462;19.304;2022-10-16T05:11:14;16.20;;;8.23;;
40162;SDS011;25881;47.462;19.304;2022-10-16T05:13:39;15.93;;;8.73;;
40162;SDS011;25881;47.462;19.304;2022-10-16T05:16:04;14.43;;;8.67;;
40162;SDS011;25881;47.462;19.304;2022-10-16T05:18:29;12.88;;;8.65;;
40162;SDS011;25881;47.462;19.304;2022-10-16T05:20:55;15.83;;;9.50;;
40162;SDS011;25881;47.462;19.304;2022-10-16T05:23:20;16.47;;;8.13;;
40162;SDS011;25881;47.462;19.304;2022-10-16T05:25:51;13.17;;;8.33;;
40162;SDS011;25881;47.462;19.304;2022-10-16T05:28:16;13.82;;;8.35;;
40162;SDS011;25881;47.462;19.304;2022-10-16T05:30:42;12.63;;;8.37;;
40162;SDS011;25881;47.462;19.304;2022-10-16T05:33:07;11.97;;;7.83;;
40162;SDS011;25881;47.462;19.304;2022-10-16T05:35:32;12.77;;;7.53;;
40162;SDS011;25881;47.462;19.304;2022-10-16T05:37:58;14.65;;;8.27;;
40162;SDS011;25881;47.462;19.304;2022-10-16T05:40:24;13.63;;;7.40;;
40162;SDS011;25881;47.462;19.304;2022-10-16T05:42:49;13.07;;;8.80;;
40162;SDS011;25881;47.462;19.304;2022-10-16T05:45:14;12.87;;;8.33;;
40162;SDS011;25881;47.462;19.304;2022-10-16T05:47:39;18.43;;;8.47;;
40162;SDS011;25881;47.462;19.304;2022-10-16T05:50:05;15.47;;;8.37;;
40162;SDS011;25881;47.462;19.304;2022-10-16T05:52:30;13.82;;;8.18;;
40162;SDS011;25881;47.462;19.304;2022-10-16T05:54:55;15.23;;;8.50;;
40162;SDS011;25881;47.462;19.304;2022-10-16T05:57:20;12.93;;;8.37;;
40162;SDS011;25881;47.462;19.304;2022-10-16T05:59:46;16.63;;;9.43;;
40162;SDS011;25881;47.462;19.304;2022-10-16T06:02:14;13.90;;;8.77;;
40162;SDS011;25881;47.462;19.304;2022-10-16T06:04:39;14.23;;;9.63;;
40162;SDS011;25881;47.462;19.304;2022-10-16T06:07:04;17.37;;;8.70;;
40162;SDS011;25881;47.462;19.304;2022-10-16T06:09:30;18.63;;;10.30;;
40162;SDS011;25881;47.462;19.304;2022-10-16T06:11:55;16.90;;;10.05;;
40162;SDS011;25881;47.462;19.304;2022-10-16T06:14:20;15.27;;;10.53;;
40162;SDS011;25881;47.462;19.304;2022-10-16T06:16:45;15.53;;;10.17;;
40162;SDS011;25881;47.462;19.304;2022-10-16T06:19:10;15.87;;;10.10;;
40162;SDS011;25881;47.462;19.304;2022-10-16T06:21:36;21.30;;;11.75;;
40162;SDS011;25881;47.462;19.304;2022-10-16T06:24:01;23.27;;;14.95;;
40162;SDS011;25881;47.462;19.304;2022-10-16T06:26:27;17.70;;;10.93;;
40162;SDS011;25881;47.462;19.304;2022-10-16T06:28:54;18.95;;;12.57;;
40162;SDS011;25881;47.462;19.304;2022-10-16T06:31:19;12.57;;;9.32;;
40162;SDS011;25881;47.462;19.304;2022-10-16T06:33:44;18.27;;;10.03;;
40162;SDS011;25881;47.462;19.304;2022-10-16T06:36:12;13.98;;;8.70;;
40162;SDS011;25881;47.462;19.304;2022-10-16T06:38:39;16.25;;;8.80;;
40162;SDS011;25881;47.462;19.304;2022-10-16T06:41:05;16.60;;;9.48;;
40162;SDS011;25881;47.462;19.304;2022-10-16T06:43:31;12.38;;;8.45;;
40162;SDS011;25881;47.462;19.304;2022-10-16T06:46:03;13.90;;;8.15;;
40162;SDS011;25881;47.462;19.304;2022-10-16T06:48:29;12.85;;;8.70;;
40162;SDS011;25881;47.462;19.304;2022-10-16T06:50:55;12.93;;;8.50;;
40162;SDS011;25881;47.462;19.304;2022-10-16T06:53:20;14.30;;;7.97;;
40162;SDS011;25881;47.462;19.304;2022-10-16T06:55:45;15.77;;;9.63;;
40162;SDS011;25881;47.462;19.304;2022-10-16T06:58:10;12.87;;;9.80;;
40162;SDS011;25881;47.462;19.304;2022-10-16T07:00:35;19.33;;;13.10;;
40162;SDS011;25881;47.462;19.304;2022-10-16T07:03:01;15.70;;;11.20;;
40162;SDS011;25881;47.462;19.304;2022-10-16T07:05:26;18.97;;;13.07;;
40162;SDS011;25881;47.462;19.304;2022-10-16T07:07:51;13.70;;;9.03;;
40162;SDS011;25881;47.462;19.304;2022-10-16T07:10:16;14.03;;;8.70;;
40162;SDS011;25881;47.462;19.304;2022-10-16T07:12:41;16.90;;;9.33;;
40162;SDS011;25881;47.462;19.304;2022-10-16T07:15:09;14.00;;;8.60;;
40162;SDS011;25881;47.462;19.304;2022-10-16T07:17:35;13.00;;;8.67;;
40162;SDS011;25881;47.462;19.304;2022-10-16T07:20:00;16.30;;;9.73;;
40162;SDS011;25881;47.462;19.304;2022-10-16T07:22:25;14.32;;;9.23;;
40162;SDS011;25881;47.462;19.304;2022-10-16T07:24:53;19.67;;;9.35;;
40162;SDS011;25881;47.462;19.304;2022-10-16T07:27:18;12.43;;;8.73;;
40162;SDS011;25881;47.462;19.304;2022-10-16T07:29:43;16.00;;;10.27;;
40162;SDS011;25881;47.462;19.304;2022-10-16T07:32:08;13.80;;;8.27;;
40162;SDS011;25881;47.462;19.304;2022-10-16T07:34:33;12.93;;;8.93;;
40162;SDS011;25881;47.462;19.304;2022-10-16T07:36:59;14.87;;;8.23;;
40162;SDS011;25881;47.462;19.304;2022-10-16T07:39:24;14.10;;;8.37;;
40162;SDS011;25881;47.462;19.304;2022-10-16T07:41:49;12.13;;;8.50;;
40162;SDS011;25881;47.462;19.304;2022-10-16T07:44:15;17.03;;;8.20;;
40162;SDS011;25881;47.462;19.304;2022-10-16T07:46:40;17.35;;;8.70;;
40162;SDS011;25881;47.462;19.304;2022-10-16T07:49:05;13.80;;;8.63;;
40162;SDS011;25881;47.462;19.304;2022-10-16T07:51:30;17.23;;;9.97;;
40162;SDS011;25881;47.462;19.304;2022-10-16T07:53:56;18.52;;;8.88;;
40162;SDS011;25881;47.462;19.304;2022-10-16T07:56:21;14.82;;;9.02;;
40162;SDS011;25881;47.462;19.304;2022-10-16T07:58:47;13.57;;;7.78;;
40162;SDS011;25881;47.462;19.304;2022-10-16T08:01:14;15.82;;;9.95;;
40162;SDS011;25881;47.462;19.304;2022-10-16T08:03:49;13.27;;;8.52;;
40162;SDS011;25881;47.462;19.304;2022-10-16T08:06:15;11.00;;;8.00;;
40162;SDS011;25881;47.462;19.304;2022-10-16T08:08:40;14.82;;;8.90;;
40162;SDS011;25881;47.462;19.304;2022-10-16T08:11:05;12.17;;;7.83;;
40162;SDS011;25881;47.462;19.304;2022-10-16T08:13:31;14.95;;;8.52;;
40162;SDS011;25881;47.462;19.304;2022-10-16T08:15:56;15.43;;;8.75;;
40162;SDS011;25881;47.462;19.304;2022-10-16T08:18:21;12.43;;;8.43;;
40162;SDS011;25881;47.462;19.304;2022-10-16T08:20:46;13.38;;;8.68;;
40162;SDS011;25881;47.462;19.304;2022-10-16T08:23:12;14.17;;;9.17;;
40162;SDS011;25881;47.462;19.304;2022-10-16T08:25:38;14.52;;;8.25;;
40162;SDS011;25881;47.462;19.304;2022-10-16T08:28:03;12.93;;;8.27;;
40162;SDS011;25881;47.462;19.304;2022-10-16T08:30:30;13.45;;;8.32;;
40162;SDS011;25881;47.462;19.304;2022-10-16T08:32:55;14.07;;;8.60;;
40162;SDS011;25881;47.462;19.304;2022-10-16T08:35:20;12.07;;;8.23;;
40162;SDS011;25881;47.462;19.304;2022-10-16T08:37:45;12.40;;;8.87;;
40162;SDS011;25881;47.462;19.304;2022-10-16T08:40:24;22.37;;;8.03;;
40162;SDS011;25881;47.462;19.304;2022-10-16T08:50:28;15.05;;;8.15;;
40162;SDS011;25881;47.462;19.304;2022-10-16T08:52:54;12.93;;;7.90;;
40162;SDS011;25881;47.462;19.304;2022-10-16T08:57:45;12.90;;;8.13;;
40162;SDS011;25881;47.462;19.304;2022-10-16T09:00:13;12.63;;;7.77;;
40162;SDS011;25881;47.462;19.304;2022-10-16T09:05:37;14.80;;;8.38;;
40162;SDS011;25881;47.462;19.304;2022-10-16T09:08:08;16.63;;;8.73;;
40162;SDS011;25881;47.462;19.304;2022-10-16T09:10:38;15.93;;;8.10;;
40162;SDS011;25881;47.462;19.304;2022-10-16T09:15:40;15.90;;;8.88;;
40162;SDS011;25881;47.462;19.304;2022-10-16T09:18:22;14.48;;;8.60;;
40162;SDS011;25881;47.462;19.304;2022-10-16T09:21:14;15.23;;;8.55;;
40162;SDS011;25881;47.462;19.304;2022-10-16T09:23:40;12.23;;;8.43;;
40162;SDS011;25881;47.462;19.304;2022-10-16T09:26:08;17.97;;;8.73;;
40162;SDS011;25881;47.462;19.304;2022-10-16T09:31:00;15.73;;;7.57;;
40162;SDS011;25881;47.462;19.304;2022-10-16T09:33:27;11.50;;;8.05;;
40162;SDS011;25881;47.462;19.304;2022-10-16T09:35:54;12.35;;;8.73;;
40162;SDS011;25881;47.462;19.304;2022-10-16T09:38:30;12.40;;;8.00;;
40162;SDS011;25881;47.462;19.304;2022-10-16T09:40:56;11.48;;;8.23;;
40162;SDS011;25881;47.462;19.304;2022-10-16T09:43:28;12.65;;;8.68;;
40162;SDS011;25881;47.462;19.304;2022-10-16T09:48:30;11.30;;;7.32;;
40162;SDS011;25881;47.462;19.304;2022-10-16T09:51:01;12.75;;;8.27;;
40162;SDS011;25881;47.462;19.304;2022-10-16T09:53:36;12.43;;;7.20;;
40162;SDS011;25881;47.462;19.304;2022-10-16T09:56:02;12.07;;;6.97;;
40162;SDS011;25881;47.462;19.304;2022-10-16T09:58:30;12.70;;;7.85;;
40162;SDS011;25881;47.462;19.304;2022-10-16T10:00:55;14.17;;;7.73;;
40162;SDS011;25881;47.462;19.304;2022-10-16T10:03:33;11.30;;;6.78;;
40162;SDS011;25881;47.462;19.304;2022-10-16T10:05:59;13.73;;;7.63;;
40162;SDS011;25881;47.462;19.304;2022-10-16T10:08:24;17.40;;;6.95;;
40162;SDS011;25881;47.462;19.304;2022-10-16T10:10:50;11.13;;;6.87;;
40162;SDS011;25881;47.462;19.304;2022-10-16T10:13:33;12.40;;;7.45;;
40162;SDS011;25881;47.462;19.304;2022-10-16T10:15:58;13.25;;;6.90;;
40162;SDS011;25881;47.462;19.304;2022-10-16T10:18:23;14.50;;;6.37;;
40162;SDS011;25881;47.462;19.304;2022-10-16T10:20:59;9.55;;;6.82;;
40162;SDS011;25881;47.462;19.304;2022-10-16T10:23:25;11.35;;;6.95;;
40162;SDS011;25881;47.462;19.304;2022-10-16T10:28:44;9.05;;;6.93;;
40162;SDS011;25881;47.462;19.304;2022-10-16T10:31:14;15.85;;;6.43;;
40162;SDS011;25881;47.462;19.304;2022-10-16T10:33:46;9.70;;;6.07;;
40162;SDS011;25881;47.462;19.304;2022-10-16T10:51:39;10.48;;;5.60;;
40162;SDS011;25881;47.462;19.304;2022-10-16T10:57:16;13.57;;;6.38;;
40162;SDS011;25881;47.462;19.304;2022-10-16T11:02:18;8.88;;;5.80;;
40162;SDS011;25881;47.462;19.304;2022-10-16T11:07:32;10.20;;;5.90;;
40162;SDS011;25881;47.462;19.304;2022-10-16T11:10:02;9.70;;;5.93;;
40162;SDS011;25881;47.462;19.304;2022-10-16T11:12:32;12.13;;;6.10;;
40162;SDS011;25881;47.462;19.304;2022-10-16T11:18:03;9.70;;;6.10;;
40162;SDS011;25881;47.462;19.304;2022-10-16T11:20:44;10.13;;;5.47;;
40162;SDS011;25881;47.462;19.304;2022-10-16T11:23:13;11.35;;;6.28;;
40162;SDS011;25881;47.462;19.304;2022-10-16T11:25:39;13.00;;;6.38;;
40162;SDS011;25881;47.462;19.304;2022-10-16T11:28:15;9.73;;;5.80;;
40162;SDS011;25881;47.462;19.304;2022-10-16T11:30:42;14.57;;;5.72;;
40162;SDS011;25881;47.462;19.304;2022-10-16T11:35:44;11.88;;;5.97;;
40162;SDS011;25881;47.462;19.304;2022-10-16T11:40:40;12.30;;;6.00;;
40162;SDS011;25881;47.462;19.304;2022-10-16T11:48:00;11.33;;;5.80;;
40162;SDS011;25881;47.462;19.304;2022-10-16T11:50:47;11.43;;;5.32;;
40162;SDS011;25881;47.462;19.304;2022-10-16T11:55:40;12.17;;;5.80;;
40162;SDS011;25881;47.462;19.304;2022-10-16T11:58:07;11.13;;;6.28;;
40162;SDS011;25881;47.462;19.304;2022-10-16T12:00:44;10.52;;;5.50;;
40162;SDS011;25881;47.462;19.304;2022-10-16T12:03:14;9.85;;;5.40;;
40162;SDS011;25881;47.462;19.304;2022-10-16T12:08:13;8.93;;;5.43;;
40162;SDS011;25881;47.462;19.304;2022-10-16T12:10:40;9.45;;;5.93;;
40162;SDS011;25881;47.462;19.304;2022-10-16T12:15:49;10.57;;;5.53;;
40162;SDS011;25881;47.462;19.304;2022-10-16T12:18:22;9.30;;;5.70;;
40162;SDS011;25881;47.462;19.304;2022-10-16T12:20:54;7.75;;;4.68;;
40162;SDS011;25881;47.462;19.304;2022-10-16T12:23:23;9.43;;;5.03;;
40162;SDS011;25881;47.462;19.304;2022-10-16T12:25:54;12.30;;;4.85;;
40162;SDS011;25881;47.462;19.304;2022-10-16T12:28:20;10.57;;;5.53;;
40162;SDS011;25881;47.462;19.304;2022-10-16T12:30:52;10.70;;;5.15;;
40162;SDS011;25881;47.462;19.304;2022-10-16T12:33:31;10.43;;;4.65;;
40162;SDS011;25881;47.462;19.304;2022-10-16T12:35:58;8.07;;;4.95;;
40162;SDS011;25881;47.462;19.304;2022-10-16T12:41:08;10.18;;;6.55;;
40162;SDS011;25881;47.462;19.304;2022-10-16T12:43:38;8.90;;;5.25;;
40162;SDS011;25881;47.462;19.304;2022-10-16T12:46:05;8.43;;;5.20;;
40162;SDS011;25881;47.462;19.304;2022-10-16T12:48:44;15.27;;;6.53;;
40162;SDS011;25881;47.462;19.304;2022-10-16T12:53:36;9.02;;;5.22;;
40162;SDS011;25881;47.462;19.304;2022-10-16T12:56:09;10.80;;;5.07;;
40162;SDS011;25881;47.462;19.304;2022-10-16T13:01:17;11.90;;;5.60;;
40162;SDS011;25881;47.462;19.304;2022-10-16T13:04:07;7.18;;;4.10;;
40162;SDS011;25881;47.462;19.304;2022-10-16T13:06:53;11.65;;;5.20;;
40162;SDS011;25881;47.462;19.304;2022-10-16T13:11:55;9.25;;;5.68;;
40162;SDS011;25881;47.462;19.304;2022-10-16T13:22:11;7.10;;;3.90;;
40162;SDS011;25881;47.462;19.304;2022-10-16T13:27:45;7.97;;;4.80;;
40162;SDS011;25881;47.462;19.304;2022-10-16T13:30:09;10.05;;;5.03;;
40162;SDS011;25881;47.462;19.304;2022-10-16T13:32:36;7.03;;;4.32;;
40162;SDS011;25881;47.462;19.304;2022-10-16T13:35:01;10.70;;;5.07;;
40162;SDS011;25881;47.462;19.304;2022-10-16T13:37:26;8.90;;;4.33;;
40162;SDS011;25881;47.462;19.304;2022-10-16T13:40:01;9.52;;;4.70;;
40162;SDS011;25881;47.462;19.304;2022-10-16T13:42:27;8.18;;;4.40;;
40162;SDS011;25881;47.462;19.304;2022-10-16T13:44:53;12.50;;;4.43;;
40162;SDS011;25881;47.462;19.304;2022-10-16T13:47:20;6.97;;;4.28;;
40162;SDS011;25881;47.462;19.304;2022-10-16T13:49:46;8.73;;;4.38;;
40162;SDS011;25881;47.462;19.304;2022-10-16T13:52:19;5.95;;;4.13;;
40162;SDS011;25881;47.462;19.304;2022-10-16T13:54:44;7.22;;;4.30;;
40162;SDS011;25881;47.462;19.304;2022-10-16T13:57:16;9.48;;;4.97;;
40162;SDS011;25881;47.462;19.304;2022-10-16T13:59:41;7.70;;;5.05;;
40162;SDS011;25881;47.462;19.304;2022-10-16T14:02:25;7.65;;;4.40;;
40162;SDS011;25881;47.462;19.304;2022-10-16T14:04:51;10.98;;;4.82;;
40162;SDS011;25881;47.462;19.304;2022-10-16T14:07:28;7.57;;;4.55;;
40162;SDS011;25881;47.462;19.304;2022-10-16T14:09:53;7.72;;;4.78;;
40162;SDS011;25881;47.462;19.304;2022-10-16T14:12:19;11.15;;;4.50;;
40162;SDS011;25881;47.462;19.304;2022-10-16T14:14:45;7.20;;;4.60;;
40162;SDS011;25881;47.462;19.304;2022-10-16T14:17:18;10.60;;;4.90;;
40162;SDS011;25881;47.462;19.304;2022-10-16T14:19:51;6.93;;;4.45;;
40162;SDS011;25881;47.462;19.304;2022-10-16T14:22:30;7.72;;;4.10;;
40162;SDS011;25881;47.462;19.304;2022-10-16T14:24:57;9.02;;;4.38;;
40162;SDS011;25881;47.462;19.304;2022-10-16T14:27:29;10.33;;;4.30;;
40162;SDS011;25881;47.462;19.304;2022-10-16T14:32:32;8.90;;;4.73;;
40162;SDS011;25881;47.462;19.304;2022-10-16T14:34:57;8.67;;;4.73;;
40162;SDS011;25881;47.462;19.304;2022-10-16T14:37:23;6.00;;;4.07;;
40162;SDS011;25881;47.462;19.304;2022-10-16T14:39:49;9.65;;;4.55;;
40162;SDS011;25881;47.462;19.304;2022-10-16T14:42:16;8.20;;;4.68;;
40162;SDS011;25881;47.462;19.304;2022-10-16T14:44:42;7.60;;;3.83;;
40162;SDS011;25881;47.462;19.304;2022-10-16T14:47:09;8.18;;;4.65;;
40162;SDS011;25881;47.462;19.304;2022-10-16T14:49:37;10.40;;;4.40;;
40162;SDS011;25881;47.462;19.304;2022-10-16T14:52:04;7.13;;;4.80;;
40162;SDS011;25881;47.462;19.304;2022-10-16T14:54:30;8.45;;;4.78;;
40162;SDS011;25881;47.462;19.304;2022-10-16T14:56:56;9.87;;;4.60;;
40162;SDS011;25881;47.462;19.304;2022-10-16T14:59:25;6.85;;;4.03;;
40162;SDS011;25881;47.462;19.304;2022-10-16T15:01:50;8.52;;;4.38;;
40162;SDS011;25881;47.462;19.304;2022-10-16T15:04:15;9.43;;;4.82;;
40162;SDS011;25881;47.462;19.304;2022-10-16T15:06:41;9.13;;;4.82;;
40162;SDS011;25881;47.462;19.304;2022-10-16T15:09:06;8.88;;;4.65;;
40162;SDS011;25881;47.462;19.304;2022-10-16T15:11:32;10.75;;;4.60;;
40162;SDS011;25881;47.462;19.304;2022-10-16T15:13:57;11.82;;;5.63;;
40162;SDS011;25881;47.462;19.304;2022-10-16T15:16:23;14.88;;;5.68;;
40162;SDS011;25881;47.462;19.304;2022-10-16T15:18:48;11.02;;;4.95;;
40162;SDS011;25881;47.462;19.304;2022-10-16T15:21:46;13.50;;;6.93;;
40162;SDS011;25881;47.462;19.304;2022-10-16T15:24:07;11.55;;;6.45;;
40162;SDS011;25881;47.462;19.304;2022-10-16T15:26:33;10.50;;;5.80;;
40162;SDS011;25881;47.462;19.304;2022-10-16T15:28:58;13.47;;;5.97;;
40162;SDS011;25881;47.462;19.304;2022-10-16T15:31:24;11.77;;;6.27;;
40162;SDS011;25881;47.462;19.304;2022-10-16T15:33:52;11.77;;;7.07;;
40162;SDS011;25881;47.462;19.304;2022-10-16T15:36:24;11.82;;;6.90;;
40162;SDS011;25881;47.462;19.304;2022-10-16T15:38:50;17.35;;;6.57;;
40162;SDS011;25881;47.462;19.304;2022-10-16T15:41:15;14.13;;;6.30;;
40162;SDS011;25881;47.462;19.304;2022-10-16T15:43:40;9.77;;;5.70;;
40162;SDS011;25881;47.462;19.304;2022-10-16T15:46:06;8.90;;;5.53;;
40162;SDS011;25881;47.462;19.304;2022-10-16T15:48:33;10.57;;;5.60;;
40162;SDS011;25881;47.462;19.304;2022-10-16T15:50:59;11.32;;;5.20;;
40162;SDS011;25881;47.462;19.304;2022-10-16T15:53:25;11.55;;;5.38;;
40162;SDS011;25881;47.462;19.304;2022-10-16T15:55:50;8.60;;;4.43;;
40162;SDS011;25881;47.462;19.304;2022-10-16T15:58:15;8.82;;;4.97;;
40162;SDS011;25881;47.462;19.304;2022-10-16T16:00:40;10.35;;;5.13;;
40162;SDS011;25881;47.462;19.304;2022-10-16T16:03:06;9.20;;;5.37;;
40162;SDS011;25881;47.462;19.304;2022-10-16T16:05:31;8.77;;;5.63;;